createdAt,value
2023-05-13T16:18:22.690Z,0.63
2023-05-13T16:20:55.878Z,2.22
2023-05-13T16:23:27.373Z,1.10
2023-05-13T16:25:58.885Z,1.00
2023-05-13T16:28:30.405Z,1.30
2023-05-13T16:31:03.659Z,1.35
2023-05-13T16:33:36.476Z,0.88
2023-05-13T16:36:10.115Z,2.35
2023-05-13T16:38:41.769Z,2.45
2023-05-13T16:41:13.591Z,8.00
2023-05-13T16:43:45.057Z,4.25
2023-05-13T16:46:17.556Z,3.08
2023-05-13T16:48:49.291Z,1.15
2023-05-13T16:51:20.986Z,1.95
2023-05-13T16:53:52.558Z,1.33
2023-05-13T16:56:26.163Z,3.83
2023-05-13T16:58:58.451Z,1.10
2023-05-13T17:01:30.001Z,1.00
2023-05-13T17:04:01.571Z,2.45
2023-05-13T17:06:33.178Z,3.13
2023-05-13T17:09:05.987Z,2.33
2023-05-13T17:11:38.809Z,0.75
2023-05-13T17:14:10.977Z,0.82
2023-05-13T17:19:14.186Z,2.42
2023-05-13T17:21:45.961Z,0.90
2023-05-13T17:24:17.643Z,3.80
2023-05-13T17:26:49.758Z,1.02
2023-05-13T17:30:46.859Z,3.33
2023-05-13T17:33:18.381Z,1.17
2023-05-13T17:35:49.905Z,0.90
2023-05-13T17:38:21.452Z,0.90
2023-05-13T17:40:53.018Z,1.00
2023-05-13T17:43:24.589Z,1.63
2023-05-13T17:45:56.273Z,0.93
2023-05-13T17:48:50.316Z,4.10
2023-05-13T17:51:21.995Z,0.80
2023-05-13T17:53:53.486Z,1.45
2023-05-13T17:56:25.289Z,2.45
2023-05-13T17:58:56.865Z,0.82
2023-05-13T18:03:59.772Z,3.90
2023-05-13T18:06:31.372Z,1.30
2023-05-13T18:09:02.964Z,3.78
2023-05-13T18:11:34.569Z,1.02
2023-05-13T18:16:39.984Z,3.90
2023-05-13T18:19:11.665Z,1.70
2023-05-13T19:35:09.725Z,3.53
2023-05-13T19:37:41.226Z,1.20
2023-05-13T19:40:12.790Z,2.30
2023-05-13T19:42:44.322Z,2.05
2023-05-13T19:45:20.645Z,2.40
2023-05-13T19:47:52.251Z,4.57
2023-05-13T19:50:24.128Z,1.50
2023-05-13T19:52:57.390Z,3.92
2023-05-13T19:55:28.916Z,3.58
2023-05-13T19:58:00.917Z,1.80
2023-05-13T20:00:32.483Z,3.15
2023-05-13T20:03:04.998Z,2.83
2023-05-13T20:05:36.562Z,3.47
2023-05-13T20:08:09.519Z,2.35
2023-05-13T20:10:42.537Z,3.00
2023-05-13T20:13:14.199Z,3.25
2023-05-13T20:15:45.957Z,1.73
2023-05-13T20:18:17.592Z,1.45
2023-05-13T20:20:49.632Z,1.15
2023-05-13T20:23:21.181Z,0.80
2023-05-13T20:26:01.902Z,1.67
2023-05-13T20:28:34.711Z,0.50
2023-05-13T20:31:07.660Z,0.73
2023-05-13T20:33:39.190Z,1.30
2023-05-13T20:36:12.121Z,0.60
2023-05-13T20:38:46.045Z,0.38
2023-05-13T20:41:18.093Z,0.28
2023-05-13T20:43:49.744Z,0.55
2023-05-13T20:46:23.316Z,0.20
2023-05-13T20:48:54.999Z,0.32
2023-05-13T20:51:27.628Z,0.10
2023-05-13T20:53:59.245Z,0.32
2023-05-13T20:56:30.755Z,0.22
2023-05-13T20:59:02.286Z,0.43
2023-05-13T21:01:34.836Z,0.73
2023-05-13T21:04:06.565Z,0.35
2023-05-13T21:06:38.197Z,0.50
2023-05-13T21:09:10.069Z,0.70
2023-05-13T21:11:41.549Z,0.47
2023-05-13T21:14:13.137Z,0.73
2023-05-13T21:16:46.292Z,0.68
2023-05-13T21:19:24.867Z,0.50
2023-05-13T21:21:56.445Z,1.05
2023-05-13T21:24:35.340Z,1.00
2023-05-13T21:27:06.907Z,0.68
2023-05-13T21:29:38.425Z,1.00
2023-05-13T21:32:10.927Z,1.27
2023-05-13T21:34:42.487Z,0.90
2023-05-13T21:37:14.424Z,0.90
2023-05-13T21:39:46.506Z,0.45
2023-05-13T21:42:18.099Z,2.15
2023-05-13T21:44:49.641Z,1.20
2023-05-13T21:47:22.511Z,3.85
2023-05-13T21:49:54.118Z,5.60
2023-05-13T21:52:25.661Z,0.80
2023-05-13T21:54:57.177Z,0.90
2023-05-13T21:57:28.900Z,3.50
2023-05-13T22:00:00.456Z,2.15
2023-05-13T22:02:31.981Z,3.00
2023-05-13T22:05:03.651Z,2.17
2023-05-13T22:07:35.352Z,6.95
2023-05-13T22:10:07.848Z,4.25
2023-05-13T22:12:39.336Z,5.65
2023-05-13T22:15:11.637Z,4.97
2023-05-13T22:20:14.668Z,5.63
2023-05-13T22:22:46.304Z,3.67
2023-05-13T22:25:17.884Z,5.10
2023-05-13T22:27:51.308Z,6.85
2023-05-13T22:30:23.203Z,5.47
2023-05-13T22:32:55.819Z,7.85
2023-05-13T22:35:28.942Z,8.60
2023-05-13T22:38:00.541Z,9.93
2023-05-13T22:40:32.060Z,7.57
2023-05-13T22:43:03.754Z,7.28
2023-05-13T22:45:36.987Z,7.75
2023-05-13T22:48:08.666Z,9.20
2023-05-13T22:50:41.771Z,8.90
2023-05-13T22:53:13.372Z,10.43
2023-05-13T22:55:44.904Z,11.35
2023-05-13T22:58:17.698Z,10.57
2023-05-13T23:00:49.742Z,9.35
2023-05-13T23:03:21.369Z,9.35
2023-05-13T23:05:54.796Z,22.35
2023-05-13T23:08:26.478Z,10.52
2023-05-13T23:10:58.063Z,10.45
2023-05-13T23:13:29.633Z,11.13
2023-05-13T23:16:01.587Z,10.32
2023-05-13T23:18:34.521Z,9.32
2023-05-13T23:21:09.007Z,13.55
2023-05-13T23:23:40.663Z,11.73
2023-05-13T23:26:12.155Z,11.82
2023-05-13T23:28:43.731Z,11.85
2023-05-13T23:31:15.387Z,11.23
2023-05-13T23:33:46.975Z,10.10
2023-05-13T23:36:18.463Z,11.32
2023-05-13T23:38:50.772Z,11.52
2023-05-13T23:43:54.022Z,10.70
2023-05-13T23:46:26.471Z,12.15
2023-05-13T23:48:58.281Z,11.52
2023-05-13T23:51:29.847Z,13.25
2023-05-13T23:54:01.522Z,11.40
2023-05-13T23:56:33.046Z,10.48
2023-05-13T23:59:05.472Z,11.68
